createdAt,value
2017-05-27T00:00:46.590Z,15
2017-05-27T00:10:46.647Z,16
2017-05-27T00:20:46.570Z,14
2017-05-27T00:30:46.626Z,17
2017-05-27T00:40:46.649Z,15
2017-05-27T00:50:46.581Z,17
2017-05-27T01:00:46.650Z,16
2017-05-27T01:10:46.597Z,15
2017-05-27T01:20:46.559Z,18
2017-05-27T01:30:46.670Z,15
2017-05-27T01:40:46.576Z,15
2017-05-27T01:50:46.657Z,15
2017-05-27T02:00:46.640Z,15
2017-05-27T02:10:46.598Z,12
2017-05-27T02:20:46.629Z,16
2017-05-27T02:30:46.571Z,12
2017-05-27T02:40:46.551Z,16
2017-05-27T02:50:46.614Z,14
2017-05-27T03:00:46.571Z,16
2017-05-27T03:10:46.651Z,15
2017-05-27T03:20:46.602Z,15
2017-05-27T03:30:46.537Z,15
2017-05-27T03:40:46.627Z,17
2017-05-27T03:50:46.596Z,14
2017-05-27T04:00:46.544Z,13
2017-05-27T04:10:46.684Z,13
2017-05-27T04:20:46.558Z,13
2017-05-27T04:30:46.644Z,14
2017-05-27T04:40:46.643Z,14
2017-05-27T04:50:46.550Z,16
2017-05-27T05:00:46.617Z,14
2017-05-27T05:10:46.587Z,13
2017-05-27T05:20:46.529Z,12
2017-05-27T05:30:46.598Z,14
2017-05-27T05:40:46.595Z,14
2017-05-27T05:50:46.625Z,10
2017-05-27T06:00:46.574Z,10
2017-05-27T06:10:46.564Z,9
2017-05-27T06:20:46.511Z,8
2017-05-27T06:30:46.582Z,8
2017-05-27T06:40:46.542Z,8
2017-05-27T06:50:46.611Z,6
2017-05-27T07:00:46.555Z,7
2017-05-27T07:10:46.542Z,6
2017-05-27T07:20:46.581Z,6
2017-05-27T07:30:46.585Z,6
2017-05-27T07:40:46.583Z,6
2017-05-27T07:50:46.550Z,5
2017-05-27T08:00:46.563Z,4
2017-05-27T08:10:46.580Z,5
2017-05-27T08:20:46.583Z,3
2017-05-27T08:30:46.602Z,4
2017-05-27T08:40:46.573Z,4
2017-05-27T08:50:46.583Z,3
2017-05-27T09:00:46.596Z,3
2017-05-27T09:10:46.586Z,4
2017-05-27T09:20:46.616Z,6
2017-05-27T09:30:46.582Z,5
2017-05-27T09:40:46.595Z,5
2017-05-27T09:50:46.617Z,4
2017-05-27T10:00:46.626Z,4
2017-05-27T10:10:46.617Z,5
2017-05-27T10:20:46.594Z,4
2017-05-27T10:30:46.590Z,4
2017-05-27T10:40:46.655Z,6
2017-05-27T10:50:46.614Z,4
2017-05-27T11:00:46.584Z,5
2017-05-27T11:10:46.657Z,5
2017-05-27T11:20:46.653Z,7
2017-05-27T11:30:46.632Z,5
2017-05-27T11:40:46.630Z,5
2017-05-27T11:50:46.631Z,4
2017-05-27T12:00:46.619Z,4
2017-05-27T12:10:46.602Z,3
2017-05-27T12:20:46.623Z,4
2017-05-27T12:30:46.632Z,3
2017-05-27T12:40:46.626Z,4
2017-05-27T12:50:46.622Z,4
2017-05-27T13:00:46.636Z,3
2017-05-27T13:10:46.645Z,4
2017-05-27T13:20:46.620Z,3
2017-05-27T13:30:46.631Z,5
2017-05-27T13:40:46.701Z,4
2017-05-27T13:50:46.650Z,3
2017-05-27T14:00:46.649Z,3
2017-05-27T14:10:46.633Z,4
2017-05-27T14:20:46.696Z,3
2017-05-27T14:30:46.657Z,4
2017-05-27T14:40:46.644Z,3
2017-05-27T14:50:46.645Z,4
2017-05-27T15:00:46.637Z,6
2017-05-27T15:10:46.675Z,4
2017-05-27T15:20:46.690Z,5
2017-05-27T15:30:46.664Z,3
2017-05-27T15:40:46.759Z,4
2017-05-27T15:50:46.679Z,4
2017-05-27T16:00:46.656Z,3
2017-05-27T16:10:46.675Z,4
2017-05-27T16:20:46.671Z,4
2017-05-27T16:30:46.659Z,4
2017-05-27T16:40:47.263Z,4
2017-05-27T16:50:46.686Z,4
2017-05-27T17:00:46.700Z,5
2017-05-27T17:10:46.747Z,4
2017-05-27T17:20:46.689Z,4
2017-05-27T17:30:46.699Z,6
2017-05-27T17:40:46.664Z,7
2017-05-27T17:50:46.697Z,4
2017-05-27T18:00:46.691Z,4
2017-05-27T18:10:46.708Z,9
2017-05-27T18:20:46.713Z,5
2017-05-27T18:30:46.685Z,7
2017-05-27T18:40:46.751Z,5
2017-05-27T18:50:46.769Z,6
2017-05-27T19:00:46.709Z,4
2017-05-27T19:10:46.723Z,5
2017-05-27T19:20:46.743Z,5
2017-05-27T19:30:46.712Z,5
2017-05-27T19:40:46.726Z,5
2017-05-27T19:50:46.718Z,5
2017-05-27T20:00:46.721Z,5
2017-05-27T20:10:46.729Z,7
2017-05-27T20:20:46.717Z,6
2017-05-27T20:30:46.714Z,7
2017-05-27T20:40:46.730Z,5
2017-05-27T20:50:46.792Z,5
2017-05-27T21:00:46.751Z,6
2017-05-27T21:10:46.742Z,6
2017-05-27T21:20:46.710Z,5
2017-05-27T21:30:46.718Z,6
2017-05-27T21:40:46.719Z,5
2017-05-27T21:50:46.734Z,5
2017-05-27T22:00:46.742Z,6
2017-05-27T22:10:46.744Z,5
2017-05-27T22:20:46.724Z,6
2017-05-27T22:30:47.696Z,6
2017-05-27T22:40:46.767Z,5
2017-05-27T22:50:47.103Z,6
2017-05-27T23:00:46.713Z,6
2017-05-27T23:10:46.740Z,6
2017-05-27T23:20:46.713Z,5
2017-05-27T23:30:46.772Z,7
2017-05-27T23:40:46.741Z,6
2017-05-27T23:50:46.708Z,7
